sensor_id;sensor_type;location;lat;lon;timestamp;P1;durP1;ratioP1;P2;durP2;ratioP2
21038;SDS011;10678;51.002;4.786;2023-07-08T00:02:09;8.38;;;3.63;;
21038;SDS011;10678;51.002;4.786;2023-07-08T00:04:36;9.57;;;3.78;;
21038;SDS011;10678;51.002;4.786;2023-07-08T00:07:02;8.25;;;3.40;;
21038;SDS011;10678;51.002;4.786;2023-07-08T00:09:28;5.75;;;2.63;;
21038;SDS011;10678;51.002;4.786;2023-07-08T00:11:55;9.30;;;3.92;;
21038;SDS011;10678;51.002;4.786;2023-07-08T00:14:22;10.38;;;3.42;;
21038;SDS011;10678;51.002;4.786;2023-07-08T00:16:48;7.28;;;3.70;;
21038;SDS011;10678;51.002;4.786;2023-07-08T00:19:14;7.80;;;3.45;;
21038;SDS011;10678;51.002;4.786;2023-07-08T00:21:44;6.45;;;3.17;;
21038;SDS011;10678;51.002;4.786;2023-07-08T00:24:10;7.22;;;3.38;;
21038;SDS011;10678;51.002;4.786;2023-07-08T00:26:35;7.18;;;4.10;;
21038;SDS011;10678;51.002;4.786;2023-07-08T00:29:01;8.07;;;3.30;;
21038;SDS011;10678;51.002;4.786;2023-07-08T00:31:27;11.10;;;4.00;;
21038;SDS011;10678;51.002;4.786;2023-07-08T00:33:53;9.73;;;4.18;;
21038;SDS011;10678;51.002;4.786;2023-07-08T00:36:20;9.15;;;3.30;;
21038;SDS011;10678;51.002;4.786;2023-07-08T00:38:47;7.95;;;3.53;;
21038;SDS011;10678;51.002;4.786;2023-07-08T00:41:14;8.50;;;3.83;;
21038;SDS011;10678;51.002;4.786;2023-07-08T00:43:48;8.90;;;3.53;;
21038;SDS011;10678;51.002;4.786;2023-07-08T00:51:31;7.85;;;4.00;;
21038;SDS011;10678;51.002;4.786;2023-07-08T00:53:57;8.68;;;3.65;;
21038;SDS011;10678;51.002;4.786;2023-07-08T00:56:27;6.28;;;2.92;;
21038;SDS011;10678;51.002;4.786;2023-07-08T01:01:31;8.23;;;3.47;;
21038;SDS011;10678;51.002;4.786;2023-07-08T01:04:01;13.98;;;3.90;;
21038;SDS011;10678;51.002;4.786;2023-07-08T01:06:32;7.80;;;3.70;;
21038;SDS011;10678;51.002;4.786;2023-07-08T01:09:04;8.85;;;3.53;;
21038;SDS011;10678;51.002;4.786;2023-07-08T01:11:32;9.60;;;4.82;;
21038;SDS011;10678;51.002;4.786;2023-07-08T01:14:01;11.13;;;3.55;;
21038;SDS011;10678;51.002;4.786;2023-07-08T01:16:28;7.53;;;3.22;;
21038;SDS011;10678;51.002;4.786;2023-07-08T01:18:56;7.80;;;3.83;;
21038;SDS011;10678;51.002;4.786;2023-07-08T01:21:35;8.07;;;3.63;;
21038;SDS011;10678;51.002;4.786;2023-07-08T01:24:03;9.75;;;3.40;;
21038;SDS011;10678;51.002;4.786;2023-07-08T01:26:31;7.13;;;3.45;;
21038;SDS011;10678;51.002;4.786;2023-07-08T01:29:00;8.55;;;3.08;;
21038;SDS011;10678;51.002;4.786;2023-07-08T01:31:27;6.57;;;3.28;;
21038;SDS011;10678;51.002;4.786;2023-07-08T01:33:53;9.75;;;3.70;;
21038;SDS011;10678;51.002;4.786;2023-07-08T01:36:20;8.05;;;3.92;;
21038;SDS011;10678;51.002;4.786;2023-07-08T01:38:45;8.27;;;3.88;;
21038;SDS011;10678;51.002;4.786;2023-07-08T01:41:12;7.45;;;3.60;;
21038;SDS011;10678;51.002;4.786;2023-07-08T01:43:39;8.32;;;3.92;;
21038;SDS011;10678;51.002;4.786;2023-07-08T01:46:04;15.52;;;4.30;;
21038;SDS011;10678;51.002;4.786;2023-07-08T01:48:39;9.70;;;4.30;;
21038;SDS011;10678;51.002;4.786;2023-07-08T01:51:07;7.05;;;3.50;;
21038;SDS011;10678;51.002;4.786;2023-07-08T01:53:36;10.10;;;3.65;;
21038;SDS011;10678;51.002;4.786;2023-07-08T01:56:05;7.47;;;3.72;;
21038;SDS011;10678;51.002;4.786;2023-07-08T01:58:31;10.88;;;3.95;;
21038;SDS011;10678;51.002;4.786;2023-07-08T02:00:57;11.25;;;3.65;;
21038;SDS011;10678;51.002;4.786;2023-07-08T02:03:22;9.32;;;3.05;;
21038;SDS011;10678;51.002;4.786;2023-07-08T02:05:48;7.38;;;4.05;;
21038;SDS011;10678;51.002;4.786;2023-07-08T02:08:14;10.57;;;3.97;;
21038;SDS011;10678;51.002;4.786;2023-07-08T02:10:40;9.82;;;3.80;;
21038;SDS011;10678;51.002;4.786;2023-07-08T02:13:07;10.07;;;3.88;;
21038;SDS011;10678;51.002;4.786;2023-07-08T02:15:33;9.15;;;4.00;;
21038;SDS011;10678;51.002;4.786;2023-07-08T02:17:59;9.80;;;4.03;;
21038;SDS011;10678;51.002;4.786;2023-07-08T02:20:24;9.48;;;4.10;;
21038;SDS011;10678;51.002;4.786;2023-07-08T02:22:50;9.38;;;3.78;;
21038;SDS011;10678;51.002;4.786;2023-07-08T02:25:16;9.27;;;3.50;;
21038;SDS011;10678;51.002;4.786;2023-07-08T02:27:41;8.55;;;4.05;;
21038;SDS011;10678;51.002;4.786;2023-07-08T02:30:07;10.90;;;4.05;;
21038;SDS011;10678;51.002;4.786;2023-07-08T02:32:34;17.00;;;4.53;;
21038;SDS011;10678;51.002;4.786;2023-07-08T02:35:00;7.80;;;3.47;;
21038;SDS011;10678;51.002;4.786;2023-07-08T02:37:30;7.72;;;3.53;;
21038;SDS011;10678;51.002;4.786;2023-07-08T02:39:57;8.27;;;4.38;;
21038;SDS011;10678;51.002;4.786;2023-07-08T02:42:22;7.93;;;3.55;;
21038;SDS011;10678;51.002;4.786;2023-07-08T02:44:48;9.27;;;3.67;;
21038;SDS011;10678;51.002;4.786;2023-07-08T02:47:14;11.77;;;4.05;;
21038;SDS011;10678;51.002;4.786;2023-07-08T02:49:39;6.72;;;3.60;;
21038;SDS011;10678;51.002;4.786;2023-07-08T02:52:05;7.65;;;4.00;;
21038;SDS011;10678;51.002;4.786;2023-07-08T02:54:31;11.75;;;4.22;;
21038;SDS011;10678;51.002;4.786;2023-07-08T02:56:56;11.20;;;4.22;;
21038;SDS011;10678;51.002;4.786;2023-07-08T02:59:22;9.38;;;3.80;;
21038;SDS011;10678;51.002;4.786;2023-07-08T03:01:48;10.20;;;3.90;;
21038;SDS011;10678;51.002;4.786;2023-07-08T03:04:15;9.65;;;4.30;;
21038;SDS011;10678;51.002;4.786;2023-07-08T03:06:41;8.82;;;4.30;;
21038;SDS011;10678;51.002;4.786;2023-07-08T03:09:08;11.95;;;4.55;;
21038;SDS011;10678;51.002;4.786;2023-07-08T03:11:35;9.18;;;3.88;;
21038;SDS011;10678;51.002;4.786;2023-07-08T03:14:01;8.05;;;3.80;;
21038;SDS011;10678;51.002;4.786;2023-07-08T03:16:27;9.75;;;4.35;;
21038;SDS011;10678;51.002;4.786;2023-07-08T03:18:53;8.23;;;4.82;;
21038;SDS011;10678;51.002;4.786;2023-07-08T03:21:19;11.23;;;4.65;;
21038;SDS011;10678;51.002;4.786;2023-07-08T03:23:45;6.45;;;3.88;;
21038;SDS011;10678;51.002;4.786;2023-07-08T03:26:16;10.82;;;4.50;;
21038;SDS011;10678;51.002;4.786;2023-07-08T03:28:44;6.75;;;4.05;;
21038;SDS011;10678;51.002;4.786;2023-07-08T03:31:10;8.25;;;3.92;;
21038;SDS011;10678;51.002;4.786;2023-07-08T03:33:36;8.27;;;4.05;;
21038;SDS011;10678;51.002;4.786;2023-07-08T03:36:02;9.70;;;4.03;;
21038;SDS011;10678;51.002;4.786;2023-07-08T03:38:52;8.05;;;4.10;;
21038;SDS011;10678;51.002;4.786;2023-07-08T03:41:20;11.48;;;4.78;;
21038;SDS011;10678;51.002;4.786;2023-07-08T03:43:46;7.20;;;3.63;;
21038;SDS011;10678;51.002;4.786;2023-07-08T03:46:12;9.82;;;4.30;;
21038;SDS011;10678;51.002;4.786;2023-07-08T03:48:39;10.00;;;4.40;;
21038;SDS011;10678;51.002;4.786;2023-07-08T03:51:07;7.65;;;3.58;;
21038;SDS011;10678;51.002;4.786;2023-07-08T03:53:49;9.27;;;4.10;;
21038;SDS011;10678;51.002;4.786;2023-07-08T03:56:14;8.32;;;3.92;;
21038;SDS011;10678;51.002;4.786;2023-07-08T03:58:40;9.82;;;4.30;;
21038;SDS011;10678;51.002;4.786;2023-07-08T04:01:09;10.77;;;4.05;;
21038;SDS011;10678;51.002;4.786;2023-07-08T04:03:45;7.75;;;3.95;;
21038;SDS011;10678;51.002;4.786;2023-07-08T04:06:11;9.82;;;4.78;;
21038;SDS011;10678;51.002;4.786;2023-07-08T04:08:37;8.35;;;4.43;;
21038;SDS011;10678;51.002;4.786;2023-07-08T04:11:03;7.93;;;4.00;;
21038;SDS011;10678;51.002;4.786;2023-07-08T04:13:29;8.75;;;4.53;;
21038;SDS011;10678;51.002;4.786;2023-07-08T04:15:55;8.15;;;4.32;;
21038;SDS011;10678;51.002;4.786;2023-07-08T04:18:23;9.27;;;4.15;;
21038;SDS011;10678;51.002;4.786;2023-07-08T04:20:48;8.98;;;3.97;;
21038;SDS011;10678;51.002;4.786;2023-07-08T04:23:17;9.38;;;4.40;;
21038;SDS011;10678;51.002;4.786;2023-07-08T04:25:43;8.02;;;4.07;;
21038;SDS011;10678;51.002;4.786;2023-07-08T04:28:09;8.50;;;4.28;;
21038;SDS011;10678;51.002;4.786;2023-07-08T04:30:35;10.40;;;4.35;;
21038;SDS011;10678;51.002;4.786;2023-07-08T04:33:06;11.38;;;4.90;;
21038;SDS011;10678;51.002;4.786;2023-07-08T04:35:36;10.52;;;3.95;;
21038;SDS011;10678;51.002;4.786;2023-07-08T04:38:06;7.72;;;4.22;;
21038;SDS011;10678;51.002;4.786;2023-07-08T04:40:34;8.10;;;4.13;;
21038;SDS011;10678;51.002;4.786;2023-07-08T04:43:02;7.57;;;3.95;;
21038;SDS011;10678;51.002;4.786;2023-07-08T04:45:28;6.80;;;3.95;;
21038;SDS011;10678;51.002;4.786;2023-07-08T04:47:53;9.15;;;4.43;;
21038;SDS011;10678;51.002;4.786;2023-07-08T04:50:19;10.57;;;4.50;;
21038;SDS011;10678;51.002;4.786;2023-07-08T04:52:45;10.88;;;4.13;;
21038;SDS011;10678;51.002;4.786;2023-07-08T04:55:12;8.15;;;4.10;;
21038;SDS011;10678;51.002;4.786;2023-07-08T04:57:38;9.07;;;4.20;;
21038;SDS011;10678;51.002;4.786;2023-07-08T05:00:05;9.90;;;4.00;;
21038;SDS011;10678;51.002;4.786;2023-07-08T05:02:33;7.97;;;4.13;;
21038;SDS011;10678;51.002;4.786;2023-07-08T05:04:59;9.55;;;3.95;;
21038;SDS011;10678;51.002;4.786;2023-07-08T05:07:24;7.50;;;3.92;;
21038;SDS011;10678;51.002;4.786;2023-07-08T05:09:50;7.85;;;4.15;;
21038;SDS011;10678;51.002;4.786;2023-07-08T05:12:16;7.22;;;3.50;;
21038;SDS011;10678;51.002;4.786;2023-07-08T05:14:41;7.05;;;4.15;;
21038;SDS011;10678;51.002;4.786;2023-07-08T05:17:07;11.02;;;4.28;;
21038;SDS011;10678;51.002;4.786;2023-07-08T05:19:33;7.45;;;3.90;;
21038;SDS011;10678;51.002;4.786;2023-07-08T05:21:59;9.98;;;4.05;;
21038;SDS011;10678;51.002;4.786;2023-07-08T05:24:25;11.35;;;3.47;;
21038;SDS011;10678;51.002;4.786;2023-07-08T05:26:50;9.50;;;4.03;;
21038;SDS011;10678;51.002;4.786;2023-07-08T05:29:16;11.82;;;4.40;;
21038;SDS011;10678;51.002;4.786;2023-07-08T05:31:41;11.07;;;4.05;;
21038;SDS011;10678;51.002;4.786;2023-07-08T05:34:07;10.60;;;4.10;;
21038;SDS011;10678;51.002;4.786;2023-07-08T05:36:33;13.63;;;4.55;;
21038;SDS011;10678;51.002;4.786;2023-07-08T05:38:58;11.35;;;4.10;;
21038;SDS011;10678;51.002;4.786;2023-07-08T05:41:24;8.63;;;4.10;;
21038;SDS011;10678;51.002;4.786;2023-07-08T05:43:49;10.63;;;3.88;;
21038;SDS011;10678;51.002;4.786;2023-07-08T05:46:15;8.27;;;3.60;;
21038;SDS011;10678;51.002;4.786;2023-07-08T05:48:41;7.20;;;4.13;;
21038;SDS011;10678;51.002;4.786;2023-07-08T05:51:06;9.55;;;3.95;;
21038;SDS011;10678;51.002;4.786;2023-07-08T05:53:32;11.38;;;4.65;;
21038;SDS011;10678;51.002;4.786;2023-07-08T05:55:58;9.10;;;4.70;;
21038;SDS011;10678;51.002;4.786;2023-07-08T05:58:23;8.52;;;4.00;;
21038;SDS011;10678;51.002;4.786;2023-07-08T06:00:54;8.02;;;4.28;;
21038;SDS011;10678;51.002;4.786;2023-07-08T06:03:21;10.70;;;4.72;;
21038;SDS011;10678;51.002;4.786;2023-07-08T06:05:46;10.85;;;5.63;;
21038;SDS011;10678;51.002;4.786;2023-07-08T06:08:12;8.73;;;4.00;;
21038;SDS011;10678;51.002;4.786;2023-07-08T06:10:41;8.98;;;4.53;;
21038;SDS011;10678;51.002;4.786;2023-07-08T06:13:08;7.15;;;4.05;;
21038;SDS011;10678;51.002;4.786;2023-07-08T06:15:33;12.15;;;4.22;;
21038;SDS011;10678;51.002;4.786;2023-07-08T06:17:59;9.13;;;4.13;;
21038;SDS011;10678;51.002;4.786;2023-07-08T06:20:27;8.60;;;4.45;;
21038;SDS011;10678;51.002;4.786;2023-07-08T06:22:53;9.35;;;4.30;;
21038;SDS011;10678;51.002;4.786;2023-07-08T06:25:19;8.85;;;4.28;;
21038;SDS011;10678;51.002;4.786;2023-07-08T06:27:44;11.38;;;5.03;;
21038;SDS011;10678;51.002;4.786;2023-07-08T06:30:10;10.70;;;4.60;;
21038;SDS011;10678;51.002;4.786;2023-07-08T06:32:36;9.10;;;4.40;;
21038;SDS011;10678;51.002;4.786;2023-07-08T06:35:02;8.30;;;4.20;;
21038;SDS011;10678;51.002;4.786;2023-07-08T06:37:28;10.70;;;4.45;;
21038;SDS011;10678;51.002;4.786;2023-07-08T06:39:53;7.82;;;4.07;;
21038;SDS011;10678;51.002;4.786;2023-07-08T06:42:19;6.95;;;3.72;;
21038;SDS011;10678;51.002;4.786;2023-07-08T06:44:45;8.90;;;4.15;;
21038;SDS011;10678;51.002;4.786;2023-07-08T06:47:15;9.73;;;4.25;;
21038;SDS011;10678;51.002;4.786;2023-07-08T06:49:45;10.10;;;4.80;;
21038;SDS011;10678;51.002;4.786;2023-07-08T06:52:11;10.80;;;4.32;;
21038;SDS011;10678;51.002;4.786;2023-07-08T06:54:37;11.13;;;4.78;;
21038;SDS011;10678;51.002;4.786;2023-07-08T06:57:03;10.48;;;4.60;;
21038;SDS011;10678;51.002;4.786;2023-07-08T06:59:29;11.45;;;4.43;;
21038;SDS011;10678;51.002;4.786;2023-07-08T07:01:54;8.63;;;4.50;;
21038;SDS011;10678;51.002;4.786;2023-07-08T07:04:20;10.30;;;4.35;;
21038;SDS011;10678;51.002;4.786;2023-07-08T07:06:45;8.55;;;4.25;;
21038;SDS011;10678;51.002;4.786;2023-07-08T07:09:11;9.65;;;4.28;;
21038;SDS011;10678;51.002;4.786;2023-07-08T07:11:37;10.13;;;5.10;;
21038;SDS011;10678;51.002;4.786;2023-07-08T07:14:02;9.85;;;4.65;;
21038;SDS011;10678;51.002;4.786;2023-07-08T07:16:28;9.85;;;4.05;;
21038;SDS011;10678;51.002;4.786;2023-07-08T07:18:54;13.65;;;4.15;;
21038;SDS011;10678;51.002;4.786;2023-07-08T07:21:20;9.93;;;3.95;;
21038;SDS011;10678;51.002;4.786;2023-07-08T07:23:46;8.45;;;4.45;;
21038;SDS011;10678;51.002;4.786;2023-07-08T07:26:12;13.00;;;4.90;;
21038;SDS011;10678;51.002;4.786;2023-07-08T07:28:38;10.40;;;4.60;;
21038;SDS011;10678;51.002;4.786;2023-07-08T07:31:04;9.32;;;4.78;;
21038;SDS011;10678;51.002;4.786;2023-07-08T07:33:31;11.18;;;5.05;;
21038;SDS011;10678;51.002;4.786;2023-07-08T07:35:57;13.07;;;4.68;;
21038;SDS011;10678;51.002;4.786;2023-07-08T07:38:23;9.40;;;4.78;;
21038;SDS011;10678;51.002;4.786;2023-07-08T07:40:53;10.82;;;4.63;;
21038;SDS011;10678;51.002;4.786;2023-07-08T07:43:19;8.50;;;4.18;;
21038;SDS011;10678;51.002;4.786;2023-07-08T07:45:49;12.90;;;5.35;;
21038;SDS011;10678;51.002;4.786;2023-07-08T07:48:16;9.07;;;4.88;;
21038;SDS011;10678;51.002;4.786;2023-07-08T07:50:44;10.05;;;4.55;;
21038;SDS011;10678;51.002;4.786;2023-07-08T07:53:14;10.75;;;5.22;;
21038;SDS011;10678;51.002;4.786;2023-07-08T07:55:39;8.07;;;4.60;;
21038;SDS011;10678;51.002;4.786;2023-07-08T07:58:05;9.15;;;4.75;;
21038;SDS011;10678;51.002;4.786;2023-07-08T08:00:31;10.57;;;4.85;;
21038;SDS011;10678;51.002;4.786;2023-07-08T08:02:56;11.15;;;4.90;;
21038;SDS011;10678;51.002;4.786;2023-07-08T08:05:22;12.15;;;4.88;;
21038;SDS011;10678;51.002;4.786;2023-07-08T08:07:48;9.73;;;5.13;;
21038;SDS011;10678;51.002;4.786;2023-07-08T08:10:14;9.10;;;5.43;;
21038;SDS011;10678;51.002;4.786;2023-07-08T08:12:40;7.95;;;4.68;;
21038;SDS011;10678;51.002;4.786;2023-07-08T08:15:06;11.65;;;5.03;;
21038;SDS011;10678;51.002;4.786;2023-07-08T08:17:32;10.02;;;5.13;;
21038;SDS011;10678;51.002;4.786;2023-07-08T08:19:58;10.38;;;4.78;;
21038;SDS011;10678;51.002;4.786;2023-07-08T08:22:24;11.65;;;5.00;;
21038;SDS011;10678;51.002;4.786;2023-07-08T08:24:49;15.25;;;4.93;;
21038;SDS011;10678;51.002;4.786;2023-07-08T08:27:15;12.35;;;5.63;;
21038;SDS011;10678;51.002;4.786;2023-07-08T08:29:41;9.85;;;4.82;;
21038;SDS011;10678;51.002;4.786;2023-07-08T08:32:06;13.38;;;5.32;;
21038;SDS011;10678;51.002;4.786;2023-07-08T08:34:32;10.10;;;5.32;;
21038;SDS011;10678;51.002;4.786;2023-07-08T08:36:58;10.90;;;4.95;;
21038;SDS011;10678;51.002;4.786;2023-07-08T08:39:23;9.30;;;5.28;;
21038;SDS011;10678;51.002;4.786;2023-07-08T08:41:52;12.07;;;5.13;;
21038;SDS011;10678;51.002;4.786;2023-07-08T08:44:24;13.60;;;5.55;;
21038;SDS011;10678;51.002;4.786;2023-07-08T08:49:54;9.35;;;5.05;;
21038;SDS011;10678;51.002;4.786;2023-07-08T08:52:25;10.57;;;5.25;;
21038;SDS011;10678;51.002;4.786;2023-07-08T08:54:50;9.88;;;5.30;;
21038;SDS011;10678;51.002;4.786;2023-07-08T09:00:07;11.15;;;4.85;;
21038;SDS011;10678;51.002;4.786;2023-07-08T09:05:18;8.90;;;5.43;;
21038;SDS011;10678;51.002;4.786;2023-07-08T09:13:11;10.80;;;5.65;;
21038;SDS011;10678;51.002;4.786;2023-07-08T09:15:44;10.82;;;5.35;;
21038;SDS011;10678;51.002;4.786;2023-07-08T09:18:15;18.77;;;6.22;;
21038;SDS011;10678;51.002;4.786;2023-07-08T09:20:45;9.27;;;5.57;;
21038;SDS011;10678;51.002;4.786;2023-07-08T09:23:23;10.20;;;5.75;;
21038;SDS011;10678;51.002;4.786;2023-07-08T09:26:05;9.63;;;5.88;;
21038;SDS011;10678;51.002;4.786;2023-07-08T09:28:37;9.88;;;5.60;;
21038;SDS011;10678;51.002;4.786;2023-07-08T09:31:04;11.27;;;5.88;;
21038;SDS011;10678;51.002;4.786;2023-07-08T09:33:32;10.43;;;5.70;;
21038;SDS011;10678;51.002;4.786;2023-07-08T09:35:59;10.15;;;5.00;;
21038;SDS011;10678;51.002;4.786;2023-07-08T09:38:25;10.60;;;5.57;;
21038;SDS011;10678;51.002;4.786;2023-07-08T09:40:51;12.52;;;5.57;;
21038;SDS011;10678;51.002;4.786;2023-07-08T09:43:26;9.18;;;5.38;;
21038;SDS011;10678;51.002;4.786;2023-07-08T09:45:59;9.90;;;5.40;;
21038;SDS011;10678;51.002;4.786;2023-07-08T09:48:29;10.13;;;5.30;;
21038;SDS011;10678;51.002;4.786;2023-07-08T09:50:59;9.75;;;5.70;;
21038;SDS011;10678;51.002;4.786;2023-07-08T09:53:25;9.75;;;5.60;;
21038;SDS011;10678;51.002;4.786;2023-07-08T09:55:52;8.85;;;5.75;;
21038;SDS011;10678;51.002;4.786;2023-07-08T09:58:23;10.98;;;5.82;;
21038;SDS011;10678;51.002;4.786;2023-07-08T10:01:10;9.80;;;5.50;;
21038;SDS011;10678;51.002;4.786;2023-07-08T10:03:38;9.82;;;5.50;;
21038;SDS011;10678;51.002;4.786;2023-07-08T10:06:17;12.63;;;5.70;;
21038;SDS011;10678;51.002;4.786;2023-07-08T10:08:54;13.70;;;5.78;;
21038;SDS011;10678;51.002;4.786;2023-07-08T10:11:33;10.20;;;5.70;;
21038;SDS011;10678;51.002;4.786;2023-07-08T10:14:12;9.55;;;5.10;;
21038;SDS011;10678;51.002;4.786;2023-07-08T10:16:59;14.30;;;5.15;;
21038;SDS011;10678;51.002;4.786;2023-07-08T10:19:26;12.68;;;5.32;;
21038;SDS011;10678;51.002;4.786;2023-07-08T10:27:47;9.18;;;5.70;;
21038;SDS011;10678;51.002;4.786;2023-07-08T10:30:26;12.85;;;6.50;;
21038;SDS011;10678;51.002;4.786;2023-07-08T10:39:23;10.18;;;5.35;;
21038;SDS011;10678;51.002;4.786;2023-07-08T10:58:36;11.25;;;5.80;;
21038;SDS011;10678;51.002;4.786;2023-07-08T11:01:09;12.95;;;6.03;;
21038;SDS011;10678;51.002;4.786;2023-07-08T11:06:53;9.70;;;5.03;;
21038;SDS011;10678;51.002;4.786;2023-07-08T11:09:39;8.85;;;5.18;;
21038;SDS011;10678;51.002;4.786;2023-07-08T11:17:48;12.35;;;5.90;;
21038;SDS011;10678;51.002;4.786;2023-07-08T11:20:24;9.68;;;5.82;;
21038;SDS011;10678;51.002;4.786;2023-07-08T11:23:13;10.80;;;5.60;;
21038;SDS011;10678;51.002;4.786;2023-07-08T11:25:48;13.40;;;5.95;;
21038;SDS011;10678;51.002;4.786;2023-07-08T11:28:20;10.65;;;5.50;;
21038;SDS011;10678;51.002;4.786;2023-07-08T11:30:48;9.45;;;5.15;;
21038;SDS011;10678;51.002;4.786;2023-07-08T11:33:16;9.00;;;5.45;;
21038;SDS011;10678;51.002;4.786;2023-07-08T11:35:47;11.57;;;5.47;;
21038;SDS011;10678;51.002;4.786;2023-07-08T11:38:16;10.43;;;5.85;;
21038;SDS011;10678;51.002;4.786;2023-07-08T11:43:22;11.43;;;5.45;;
21038;SDS011;10678;51.002;4.786;2023-07-08T11:45:50;8.52;;;4.20;;
21038;SDS011;10678;51.002;4.786;2023-07-08T11:48:21;8.43;;;5.05;;
21038;SDS011;10678;51.002;4.786;2023-07-08T11:50:50;10.38;;;5.18;;
21038;SDS011;10678;51.002;4.786;2023-07-08T11:55:56;8.57;;;5.45;;
21038;SDS011;10678;51.002;4.786;2023-07-08T11:58:26;9.73;;;5.63;;
21038;SDS011;10678;51.002;4.786;2023-07-08T12:01:01;8.05;;;4.90;;
21038;SDS011;10678;51.002;4.786;2023-07-08T12:03:41;11.73;;;4.95;;
21038;SDS011;10678;51.002;4.786;2023-07-08T12:09:26;8.63;;;4.80;;
21038;SDS011;10678;51.002;4.786;2023-07-08T12:11:59;8.52;;;5.05;;
21038;SDS011;10678;51.002;4.786;2023-07-08T12:14:30;9.07;;;4.95;;
21038;SDS011;10678;51.002;4.786;2023-07-08T12:16:57;8.68;;;4.07;;
21038;SDS011;10678;51.002;4.786;2023-07-08T12:19:25;9.70;;;5.45;;
21038;SDS011;10678;51.002;4.786;2023-07-08T12:21:53;9.13;;;4.78;;
21038;SDS011;10678;51.002;4.786;2023-07-08T12:24:19;9.88;;;5.30;;
21038;SDS011;10678;51.002;4.786;2023-07-08T12:26:51;11.18;;;4.72;;
21038;SDS011;10678;51.002;4.786;2023-07-08T12:29:17;8.48;;;5.15;;
21038;SDS011;10678;51.002;4.786;2023-07-08T12:31:42;12.70;;;5.07;;
21038;SDS011;10678;51.002;4.786;2023-07-08T12:34:13;9.02;;;5.15;;
21038;SDS011;10678;51.002;4.786;2023-07-08T12:36:41;9.68;;;4.82;;
21038;SDS011;10678;51.002;4.786;2023-07-08T12:39:09;10.60;;;5.45;;
21038;SDS011;10678;51.002;4.786;2023-07-08T12:41:39;8.07;;;4.70;;
21038;SDS011;10678;51.002;4.786;2023-07-08T12:44:08;8.60;;;4.32;;
21038;SDS011;10678;51.002;4.786;2023-07-08T12:46:44;8.18;;;4.40;;
21038;SDS011;10678;51.002;4.786;2023-07-08T12:49:10;9.30;;;4.55;;
21038;SDS011;10678;51.002;4.786;2023-07-08T12:51:36;8.77;;;4.30;;
21038;SDS011;10678;51.002;4.786;2023-07-08T12:54:02;11.77;;;4.15;;
21038;SDS011;10678;51.002;4.786;2023-07-08T12:56:27;8.13;;;4.45;;
21038;SDS011;10678;51.002;4.786;2023-07-08T12:58:54;8.77;;;4.32;;
21038;SDS011;10678;51.002;4.786;2023-07-08T13:01:24;8.70;;;4.15;;
21038;SDS011;10678;51.002;4.786;2023-07-08T13:03:54;14.40;;;4.38;;
21038;SDS011;10678;51.002;4.786;2023-07-08T13:06:25;10.57;;;4.95;;
21038;SDS011;10678;51.002;4.786;2023-07-08T13:09:00;8.25;;;4.28;;
21038;SDS011;10678;51.002;4.786;2023-07-08T13:11:47;7.78;;;4.20;;
21038;SDS011;10678;51.002;4.786;2023-07-08T13:14:13;9.57;;;4.55;;
21038;SDS011;10678;51.002;4.786;2023-07-08T13:16:40;14.10;;;5.22;;
21038;SDS011;10678;51.002;4.786;2023-07-08T13:19:06;10.65;;;4.55;;
21038;SDS011;10678;51.002;4.786;2023-07-08T13:21:37;10.68;;;5.30;;
21038;SDS011;10678;51.002;4.786;2023-07-08T13:24:06;8.10;;;4.70;;
21038;SDS011;10678;51.002;4.786;2023-07-08T13:26:34;10.75;;;4.50;;
21038;SDS011;10678;51.002;4.786;2023-07-08T13:29:03;12.45;;;3.97;;
21038;SDS011;10678;51.002;4.786;2023-07-08T13:31:33;8.05;;;3.17;;
21038;SDS011;10678;51.002;4.786;2023-07-08T13:34:05;6.63;;;3.22;;
21038;SDS011;10678;51.002;4.786;2023-07-08T13:36:35;8.32;;;2.95;;
21038;SDS011;10678;51.002;4.786;2023-07-08T13:39:05;8.40;;;2.97;;
21038;SDS011;10678;51.002;4.786;2023-07-08T13:41:32;5.82;;;2.40;;
21038;SDS011;10678;51.002;4.786;2023-07-08T13:44:03;6.00;;;2.53;;
21038;SDS011;10678;51.002;4.786;2023-07-08T13:46:34;6.05;;;2.13;;
21038;SDS011;10678;51.002;4.786;2023-07-08T13:51:36;7.07;;;2.15;;
21038;SDS011;10678;51.002;4.786;2023-07-08T13:57:08;6.70;;;2.58;;
21038;SDS011;10678;51.002;4.786;2023-07-08T13:59:35;6.97;;;2.50;;
21038;SDS011;10678;51.002;4.786;2023-07-08T14:02:01;6.50;;;2.40;;
21038;SDS011;10678;51.002;4.786;2023-07-08T14:04:34;6.40;;;2.30;;
21038;SDS011;10678;51.002;4.786;2023-07-08T14:07:00;9.60;;;2.20;;
21038;SDS011;10678;51.002;4.786;2023-07-08T14:09:26;8.23;;;2.50;;
21038;SDS011;10678;51.002;4.786;2023-07-08T14:11:52;6.90;;;2.45;;
21038;SDS011;10678;51.002;4.786;2023-07-08T14:14:18;9.18;;;2.42;;
21038;SDS011;10678;51.002;4.786;2023-07-08T14:16:45;6.40;;;2.53;;
21038;SDS011;10678;51.002;4.786;2023-07-08T14:19:16;8.80;;;2.85;;
21038;SDS011;10678;51.002;4.786;2023-07-08T14:21:49;9.05;;;2.63;;
21038;SDS011;10678;51.002;4.786;2023-07-08T14:24:19;7.25;;;2.47;;
21038;SDS011;10678;51.002;4.786;2023-07-08T14:26:45;15.07;;;3.60;;
21038;SDS011;10678;51.002;4.786;2023-07-08T14:29:12;5.70;;;2.33;;
21038;SDS011;10678;51.002;4.786;2023-07-08T14:31:38;7.03;;;2.40;;
21038;SDS011;10678;51.002;4.786;2023-07-08T14:34:09;9.73;;;2.65;;
21038;SDS011;10678;51.002;4.786;2023-07-08T14:36:43;8.00;;;2.35;;
21038;SDS011;10678;51.002;4.786;2023-07-08T14:39:09;6.38;;;2.47;;
21038;SDS011;10678;51.002;4.786;2023-07-08T14:41:37;8.13;;;3.08;;
21038;SDS011;10678;51.002;4.786;2023-07-08T14:44:08;6.22;;;2.30;;
21038;SDS011;10678;51.002;4.786;2023-07-08T14:46:56;7.57;;;2.60;;
21038;SDS011;10678;51.002;4.786;2023-07-08T14:49:23;7.68;;;2.38;;
21038;SDS011;10678;51.002;4.786;2023-07-08T14:51:49;7.60;;;2.60;;
21038;SDS011;10678;51.002;4.786;2023-07-08T14:54:17;8.60;;;2.38;;
21038;SDS011;10678;51.002;4.786;2023-07-08T14:56:43;7.50;;;3.17;;
21038;SDS011;10678;51.002;4.786;2023-07-08T14:59:15;5.82;;;2.45;;
21038;SDS011;10678;51.002;4.786;2023-07-08T15:01:43;7.90;;;2.15;;
21038;SDS011;10678;51.002;4.786;2023-07-08T15:04:13;9.07;;;2.92;;
21038;SDS011;10678;51.002;4.786;2023-07-08T15:06:41;6.85;;;2.40;;
21038;SDS011;10678;51.002;4.786;2023-07-08T15:09:06;6.57;;;2.80;;
21038;SDS011;10678;51.002;4.786;2023-07-08T15:11:32;6.60;;;2.70;;
21038;SDS011;10678;51.002;4.786;2023-07-08T15:13:59;6.43;;;2.55;;
21038;SDS011;10678;51.002;4.786;2023-07-08T15:16:27;9.20;;;2.75;;
21038;SDS011;10678;51.002;4.786;2023-07-08T15:18:53;6.88;;;2.58;;
21038;SDS011;10678;51.002;4.786;2023-07-08T15:21:18;7.03;;;3.05;;
21038;SDS011;10678;51.002;4.786;2023-07-08T15:23:44;6.95;;;2.55;;
21038;SDS011;10678;51.002;4.786;2023-07-08T15:26:10;5.93;;;2.22;;
21038;SDS011;10678;51.002;4.786;2023-07-08T15:31:14;6.32;;;2.90;;
21038;SDS011;10678;51.002;4.786;2023-07-08T15:33:52;8.40;;;2.58;;
21038;SDS011;10678;51.002;4.786;2023-07-08T15:36:18;9.15;;;2.88;;
21038;SDS011;10678;51.002;4.786;2023-07-08T15:38:44;10.07;;;2.88;;
21038;SDS011;10678;51.002;4.786;2023-07-08T15:43:45;5.28;;;2.50;;
21038;SDS011;10678;51.002;4.786;2023-07-08T15:46:10;7.97;;;2.78;;
21038;SDS011;10678;51.002;4.786;2023-07-08T15:48:36;8.43;;;2.92;;
21038;SDS011;10678;51.002;4.786;2023-07-08T15:51:02;7.32;;;3.05;;
21038;SDS011;10678;51.002;4.786;2023-07-08T15:53:27;10.20;;;3.00;;
21038;SDS011;10678;51.002;4.786;2023-07-08T15:55:53;10.15;;;3.60;;
21038;SDS011;10678;51.002;4.786;2023-07-08T15:58:22;11.10;;;2.95;;
21038;SDS011;10678;51.002;4.786;2023-07-08T16:00:51;7.32;;;2.80;;
21038;SDS011;10678;51.002;4.786;2023-07-08T16:03:21;7.65;;;2.88;;
21038;SDS011;10678;51.002;4.786;2023-07-08T16:05:55;7.18;;;2.70;;
21038;SDS011;10678;51.002;4.786;2023-07-08T16:08:23;9.95;;;2.92;;